sensor_id;sensor_type;location;lat;lon;timestamp;pressure;altitude;pressure_sealevel;temperature;humidity
18323;BME280;9287;49.456;11.064;2023-06-10T00:00:21;97866.25;;;17.21;100.00
18323;BME280;9287;49.456;11.064;2023-06-10T00:02:51;97871.03;;;17.10;100.00
18323;BME280;9287;49.456;11.064;2023-06-10T00:05:23;97873.00;;;17.10;100.00
18323;BME280;9287;49.456;11.064;2023-06-10T00:07:56;97869.84;;;17.11;100.00
18323;BME280;9287;49.456;11.064;2023-06-10T00:10:25;97872.63;;;17.08;100.00
18323;BME280;9287;49.456;11.064;2023-06-10T00:12:53;97865.50;;;17.10;100.00
18323;BME280;9287;49.456;11.064;2023-06-10T00:15:23;97871.81;;;17.07;100.00
18323;BME280;9287;49.456;11.064;2023-06-10T00:17:52;97868.28;;;17.03;100.00
18323;BME280;9287;49.456;11.064;2023-06-10T00:20:22;97863.16;;;17.05;100.00
18323;BME280;9287;49.456;11.064;2023-06-10T00:22:51;97867.09;;;17.00;100.00
18323;BME280;9287;49.456;11.064;2023-06-10T00:25:23;97860.78;;;17.00;100.00
18323;BME280;9287;49.456;11.064;2023-06-10T00:27:53;97868.69;;;17.01;100.00
18323;BME280;9287;49.456;11.064;2023-06-10T00:30:23;97869.47;;;17.02;100.00
18323;BME280;9287;49.456;11.064;2023-06-10T00:32:57;97869.88;;;16.90;100.00
18323;BME280;9287;49.456;11.064;2023-06-10T00:35:26;97875.00;;;16.84;100.00
18323;BME280;9287;49.456;11.064;2023-06-10T00:37:57;97869.50;;;16.88;100.00
18323;BME280;9287;49.456;11.064;2023-06-10T00:40:25;97868.72;;;16.84;100.00
18323;BME280;9287;49.456;11.064;2023-06-10T00:42:59;97870.28;;;16.85;100.00
18323;BME280;9287;49.456;11.064;2023-06-10T00:45:34;97868.72;;;16.87;100.00
18323;BME280;9287;49.456;11.064;2023-06-10T00:48:06;97869.88;;;16.83;100.00
18323;BME280;9287;49.456;11.064;2023-06-10T00:50:35;97864.75;;;16.81;100.00
18323;BME280;9287;49.456;11.064;2023-06-10T00:53:09;97864.75;;;16.81;100.00
18323;BME280;9287;49.456;11.064;2023-06-10T00:55:42;97867.53;;;16.67;100.00
18323;BME280;9287;49.456;11.064;2023-06-10T00:58:10;97869.50;;;16.66;100.00
18323;BME280;9287;49.456;11.064;2023-06-10T01:00:41;97867.16;;;16.72;100.00
18323;BME280;9287;49.456;11.064;2023-06-10T01:03:24;97860.84;;;16.72;100.00
18323;BME280;9287;49.456;11.064;2023-06-10T01:06:09;97865.56;;;16.67;100.00
18323;BME280;9287;49.456;11.064;2023-06-10T01:08:49;97862.41;;;16.51;100.00
18323;BME280;9287;49.456;11.064;2023-06-10T01:11:24;97867.94;;;16.44;100.00
18323;BME280;9287;49.456;11.064;2023-06-10T01:13:56;97860.81;;;16.47;100.00
18323;BME280;9287;49.456;11.064;2023-06-10T01:16:32;97866.34;;;16.32;100.00
18323;BME280;9287;49.456;11.064;2023-06-10T01:19:03;97867.91;;;16.16;100.00
18323;BME280;9287;49.456;11.064;2023-06-10T01:21:34;97867.53;;;16.10;100.00
18323;BME280;9287;49.456;11.064;2023-06-10T01:24:03;97867.47;;;15.99;100.00
18323;BME280;9287;49.456;11.064;2023-06-10T01:26:36;97878.06;;;15.83;100.00
18323;BME280;9287;49.456;11.064;2023-06-10T01:29:07;97874.91;;;15.74;100.00
18323;BME280;9287;49.456;11.064;2023-06-10T01:31:43;97868.63;;;15.74;100.00
18323;BME280;9287;49.456;11.064;2023-06-10T01:34:19;97866.63;;;15.71;100.00
18323;BME280;9287;49.456;11.064;2023-06-10T01:36:50;97868.56;;;15.63;100.00
18323;BME280;9287;49.456;11.064;2023-06-10T01:39:23;97866.97;;;15.62;100.00
18323;BME280;9287;49.456;11.064;2023-06-10T01:41:53;97866.22;;;15.58;100.00
18323;BME280;9287;49.456;11.064;2023-06-10T01:44:26;97877.22;;;15.58;100.00
18323;BME280;9287;49.456;11.064;2023-06-10T01:46:54;97866.13;;;15.51;100.00
18323;BME280;9287;49.456;11.064;2023-06-10T01:49:24;97871.59;;;15.44;100.00
18323;BME280;9287;49.456;11.064;2023-06-10T01:51:54;97872.34;;;15.33;100.00
18323;BME280;9287;49.456;11.064;2023-06-10T01:54:24;97872.75;;;15.32;100.00
18323;BME280;9287;49.456;11.064;2023-06-10T01:56:53;97873.13;;;15.30;100.00
18323;BME280;9287;49.456;11.064;2023-06-10T01:59:22;97873.88;;;15.27;100.00
18323;BME280;9287;49.456;11.064;2023-06-10T02:01:50;97880.97;;;15.28;100.00
18323;BME280;9287;49.456;11.064;2023-06-10T02:04:18;97878.63;;;15.30;100.00
18323;BME280;9287;49.456;11.064;2023-06-10T02:06:46;97877.03;;;15.29;100.00
18323;BME280;9287;49.456;11.064;2023-06-10T02:09:18;97873.88;;;15.24;100.00
18323;BME280;9287;49.456;11.064;2023-06-10T02:11:47;97872.66;;;15.14;100.00
18323;BME280;9287;49.456;11.064;2023-06-10T02:14:15;97876.91;;;15.01;100.00
18323;BME280;9287;49.456;11.064;2023-06-10T02:16:43;97871.44;;;15.05;100.00
18323;BME280;9287;49.456;11.064;2023-06-10T02:19:14;97873.81;;;15.06;100.00
18323;BME280;9287;49.456;11.064;2023-06-10T02:21:44;97863.94;;;15.02;100.00
18323;BME280;9287;49.456;11.064;2023-06-10T02:24:13;97865.03;;;14.90;100.00
18323;BME280;9287;49.456;11.064;2023-06-10T02:26:43;97878.41;;;14.88;100.00
18323;BME280;9287;49.456;11.064;2023-06-10T02:29:11;97867.34;;;14.81;100.00
18323;BME280;9287;49.456;11.064;2023-06-10T02:31:40;97868.56;;;14.87;100.00
18323;BME280;9287;49.456;11.064;2023-06-10T02:34:09;97873.69;;;14.88;100.00
18323;BME280;9287;49.456;11.064;2023-06-10T02:36:38;97874.41;;;14.78;100.00
18323;BME280;9287;49.456;11.064;2023-06-10T02:39:06;97877.56;;;14.80;100.00
18323;BME280;9287;49.456;11.064;2023-06-10T02:41:35;97888.56;;;14.84;100.00
18323;BME280;9287;49.456;11.064;2023-06-10T02:44:05;97880.69;;;14.79;100.00
18323;BME280;9287;49.456;11.064;2023-06-10T02:46:33;97884.53;;;14.67;100.00
18323;BME280;9287;49.456;11.064;2023-06-10T02:49:02;97875.84;;;14.61;100.00
18323;BME280;9287;49.456;11.064;2023-06-10T02:51:30;97877.44;;;14.62;100.00
18323;BME280;9287;49.456;11.064;2023-06-10T02:53:59;97888.72;;;14.50;100.00
18323;BME280;9287;49.456;11.064;2023-06-10T02:56:29;97885.59;;;14.55;100.00
18323;BME280;9287;49.456;11.064;2023-06-10T02:58:57;97892.75;;;14.63;100.00
18323;BME280;9287;49.456;11.064;2023-06-10T03:01:35;97888.03;;;14.64;100.00
18323;BME280;9287;49.456;11.064;2023-06-10T03:04:04;97887.56;;;14.55;100.00
18323;BME280;9287;49.456;11.064;2023-06-10T03:06:32;97898.53;;;14.51;100.00
18323;BME280;9287;49.456;11.064;2023-06-10T03:09:04;97892.97;;;14.44;100.00
18323;BME280;9287;49.456;11.064;2023-06-10T03:11:34;97892.94;;;14.41;100.00
18323;BME280;9287;49.456;11.064;2023-06-10T03:14:02;97892.06;;;14.33;100.00
18323;BME280;9287;49.456;11.064;2023-06-10T03:16:31;97890.41;;;14.25;100.00
18323;BME280;9287;49.456;11.064;2023-06-10T03:19:01;97888.03;;;14.23;100.00
18323;BME280;9287;49.456;11.064;2023-06-10T03:21:29;97889.25;;;14.26;100.00
18323;BME280;9287;49.456;11.064;2023-06-10T03:23:58;97887.28;;;14.26;100.00
18323;BME280;9287;49.456;11.064;2023-06-10T03:26:26;97892.88;;;14.34;100.00
18323;BME280;9287;49.456;11.064;2023-06-10T03:28:56;97896.47;;;14.41;100.00
18323;BME280;9287;49.456;11.064;2023-06-10T03:31:24;97900.00;;;14.42;100.00
18323;BME280;9287;49.456;11.064;2023-06-10T03:33:53;97887.91;;;14.46;100.00
18323;BME280;9287;49.456;11.064;2023-06-10T03:36:23;97893.72;;;14.41;100.00
18323;BME280;9287;49.456;11.064;2023-06-10T03:38:59;97898.47;;;14.44;100.00
18323;BME280;9287;49.456;11.064;2023-06-10T03:41:28;97887.47;;;14.44;100.00
18323;BME280;9287;49.456;11.064;2023-06-10T03:43:56;97887.47;;;14.44;100.00
18323;BME280;9287;49.456;11.064;2023-06-10T03:46:24;97888.31;;;14.48;100.00
18323;BME280;9287;49.456;11.064;2023-06-10T03:48:52;97903.97;;;14.44;100.00
18323;BME280;9287;49.456;11.064;2023-06-10T03:51:22;97902.38;;;14.43;100.00
18323;BME280;9287;49.456;11.064;2023-06-10T03:53:50;97904.78;;;14.48;100.00
18323;BME280;9287;49.456;11.064;2023-06-10T03:56:18;97909.53;;;14.51;100.00
18323;BME280;9287;49.456;11.064;2023-06-10T03:58:47;97904.06;;;14.58;100.00
18323;BME280;9287;49.456;11.064;2023-06-10T04:01:16;97904.16;;;14.66;100.00
18323;BME280;9287;49.456;11.064;2023-06-10T04:03:47;97898.28;;;14.67;100.00
18323;BME280;9287;49.456;11.064;2023-06-10T04:06:18;97897.91;;;14.69;100.00
18323;BME280;9287;49.456;11.064;2023-06-10T04:08:50;97893.97;;;14.70;100.00
18323;BME280;9287;49.456;11.064;2023-06-10T04:11:20;97897.94;;;14.76;100.00
18323;BME280;9287;49.456;11.064;2023-06-10T04:13:49;97901.47;;;14.76;100.00
18323;BME280;9287;49.456;11.064;2023-06-10T04:16:20;97907.41;;;14.82;100.00
18323;BME280;9287;49.456;11.064;2023-06-10T04:18:49;97905.81;;;14.81;100.00
18323;BME280;9287;49.456;11.064;2023-06-10T04:21:18;97906.28;;;14.90;100.00
18323;BME280;9287;49.456;11.064;2023-06-10T04:23:50;97903.16;;;14.95;100.00
18323;BME280;9287;49.456;11.064;2023-06-10T04:26:19;97910.72;;;15.05;100.00
18323;BME280;9287;49.456;11.064;2023-06-10T04:28:48;97908.34;;;15.07;100.00
18323;BME280;9287;49.456;11.064;2023-06-10T04:31:19;97904.84;;;15.10;100.00
18323;BME280;9287;49.456;11.064;2023-06-10T04:33:47;97907.66;;;15.21;100.00
18323;BME280;9287;49.456;11.064;2023-06-10T04:36:15;97910.81;;;15.26;100.00
18323;BME280;9287;49.456;11.064;2023-06-10T04:38:44;97904.19;;;15.35;100.00
18323;BME280;9287;49.456;11.064;2023-06-10T04:41:16;97901.88;;;15.40;100.00
18323;BME280;9287;49.456;11.064;2023-06-10T04:43:48;97903.84;;;15.47;100.00
18323;BME280;9287;49.456;11.064;2023-06-10T04:46:18;97900.78;;;15.59;100.00
18323;BME280;9287;49.456;11.064;2023-06-10T04:48:48;97901.63;;;15.70;100.00
18323;BME280;9287;49.456;11.064;2023-06-10T04:51:17;97904.00;;;15.75;100.00
18323;BME280;9287;49.456;11.064;2023-06-10T04:53:45;97896.16;;;15.84;100.00
18323;BME280;9287;49.456;11.064;2023-06-10T04:56:13;97904.47;;;15.91;100.00
18323;BME280;9287;49.456;11.064;2023-06-10T04:58:45;97905.66;;;16.01;100.00
18323;BME280;9287;49.456;11.064;2023-06-10T05:01:13;97907.25;;;16.09;100.00
18323;BME280;9287;49.456;11.064;2023-06-10T05:03:44;97905.66;;;16.12;100.00
18323;BME280;9287;49.456;11.064;2023-06-10T05:06:14;97914.34;;;16.21;100.00
18323;BME280;9287;49.456;11.064;2023-06-10T05:08:43;97908.06;;;16.27;100.00
18323;BME280;9287;49.456;11.064;2023-06-10T05:11:12;97910.44;;;16.43;100.00
18323;BME280;9287;49.456;11.064;2023-06-10T05:13:42;97908.88;;;16.49;100.00
18323;BME280;9287;49.456;11.064;2023-06-10T05:16:15;97911.25;;;16.61;100.00
18323;BME280;9287;49.456;11.064;2023-06-10T05:18:42;97910.47;;;16.72;100.00
18323;BME280;9287;49.456;11.064;2023-06-10T05:21:12;97912.06;;;16.76;100.00
18323;BME280;9287;49.456;11.064;2023-06-10T05:23:40;97908.88;;;16.85;100.00
18323;BME280;9287;49.456;11.064;2023-06-10T05:26:10;97911.25;;;16.97;100.00
18323;BME280;9287;49.456;11.064;2023-06-10T05:28:42;97908.88;;;17.06;100.00
18323;BME280;9287;49.456;11.064;2023-06-10T05:31:13;97912.03;;;17.12;100.00
18323;BME280;9287;49.456;11.064;2023-06-10T05:33:43;97921.44;;;17.21;100.00
18323;BME280;9287;49.456;11.064;2023-06-10T05:36:13;97921.44;;;17.28;100.00
18323;BME280;9287;49.456;11.064;2023-06-10T05:38:41;97918.25;;;17.37;100.00
18323;BME280;9287;49.456;11.064;2023-06-10T05:41:11;97927.72;;;17.43;100.00
18323;BME280;9287;49.456;11.064;2023-06-10T05:43:39;97930.81;;;17.56;100.00
18323;BME280;9287;49.456;11.064;2023-06-10T05:46:09;97934.72;;;17.76;100.00
18323;BME280;9287;49.456;11.064;2023-06-10T05:48:38;97929.97;;;17.80;100.00
18323;BME280;9287;49.456;11.064;2023-06-10T05:51:08;97930.69;;;17.98;100.00
18323;BME280;9287;49.456;11.064;2023-06-10T05:53:37;97926.69;;;18.03;100.00
18323;BME280;9287;49.456;11.064;2023-06-10T05:56:05;97933.75;;;18.15;100.00
18323;BME280;9287;49.456;11.064;2023-06-10T05:58:33;97925.06;;;18.16;100.00
18323;BME280;9287;49.456;11.064;2023-06-10T06:01:01;97930.09;;;18.28;100.00
18323;BME280;9287;49.456;11.064;2023-06-10T06:03:29;97929.22;;;18.42;100.00
18323;BME280;9287;49.456;11.064;2023-06-10T06:05:58;97927.22;;;18.50;100.00
18323;BME280;9287;49.456;11.064;2023-06-10T06:08:26;97929.94;;;18.53;100.00
18323;BME280;9287;49.456;11.064;2023-06-10T06:10:53;97926.34;;;18.63;100.00
18323;BME280;9287;49.456;11.064;2023-06-10T06:13:21;97927.03;;;18.74;100.00
18323;BME280;9287;49.456;11.064;2023-06-10T06:15:49;97921.03;;;18.87;100.00
18323;BME280;9287;49.456;11.064;2023-06-10T06:18:17;97923.72;;;18.90;100.00
18323;BME280;9287;49.456;11.064;2023-06-10T06:20:45;97923.66;;;19.01;100.00
18323;BME280;9287;49.456;11.064;2023-06-10T06:23:15;97927.03;;;19.19;100.00
18323;BME280;9287;49.456;11.064;2023-06-10T06:25:42;97922.31;;;19.16;100.00
18323;BME280;9287;49.456;11.064;2023-06-10T06:28:10;97913.94;;;19.23;100.00
18323;BME280;9287;49.456;11.064;2023-06-10T06:30:38;97924.53;;;19.32;100.00
18323;BME280;9287;49.456;11.064;2023-06-10T06:33:06;97925.16;;;19.50;100.00
18323;BME280;9287;49.456;11.064;2023-06-10T06:35:34;97927.38;;;19.62;100.00
18323;BME280;9287;49.456;11.064;2023-06-10T06:38:04;97925.22;;;19.77;100.00
18323;BME280;9287;49.456;11.064;2023-06-10T06:40:33;97923.94;;;19.85;100.00
18323;BME280;9287;49.456;11.064;2023-06-10T06:43:01;97920.44;;;19.81;100.00
18323;BME280;9287;49.456;11.064;2023-06-10T06:45:29;97924.28;;;19.91;100.00
18323;BME280;9287;49.456;11.064;2023-06-10T06:47:56;97921.81;;;19.96;100.00
18323;BME280;9287;49.456;11.064;2023-06-10T06:50:25;97921.16;;;20.15;100.00
18323;BME280;9287;49.456;11.064;2023-06-10T06:52:54;97926.88;;;20.32;100.00
18323;BME280;9287;49.456;11.064;2023-06-10T06:55:22;97923.91;;;20.46;100.00
18323;BME280;9287;49.456;11.064;2023-06-10T06:57:51;97924.00;;;20.66;100.00
18323;BME280;9287;49.456;11.064;2023-06-10T07:00:19;97924.50;;;20.84;100.00
18323;BME280;9287;49.456;11.064;2023-06-10T07:02:47;97927.22;;;20.88;100.00
18323;BME280;9287;49.456;11.064;2023-06-10T07:05:15;97927.91;;;20.95;100.00
18323;BME280;9287;49.456;11.064;2023-06-10T07:07:43;97923.78;;;21.27;95.18
18323;BME280;9287;49.456;11.064;2023-06-10T07:10:11;97927.00;;;21.65;93.44
18323;BME280;9287;49.456;11.064;2023-06-10T07:12:39;97927.72;;;21.69;86.90
18323;BME280;9287;49.456;11.064;2023-06-10T07:15:08;97929.59;;;21.95;84.00
18323;BME280;9287;49.456;11.064;2023-06-10T07:17:37;97937.44;;;22.00;81.36
18323;BME280;9287;49.456;11.064;2023-06-10T07:20:05;97928.25;;;22.03;79.24
18323;BME280;9287;49.456;11.064;2023-06-10T07:22:33;97928.00;;;22.34;76.79
18323;BME280;9287;49.456;11.064;2023-06-10T07:25:01;97928.00;;;22.50;74.06
18323;BME280;9287;49.456;11.064;2023-06-10T07:27:29;97928.41;;;22.84;72.70
18323;BME280;9287;49.456;11.064;2023-06-10T07:29:57;97935.13;;;23.32;69.20
18323;BME280;9287;49.456;11.064;2023-06-10T07:32:28;97925.19;;;24.31;61.93
18323;BME280;9287;49.456;11.064;2023-06-10T07:34:56;97931.63;;;26.38;53.73
18323;BME280;9287;49.456;11.064;2023-06-10T07:37:24;97933.31;;;28.67;44.97
18323;BME280;9287;49.456;11.064;2023-06-10T07:39:52;97931.16;;;28.02;44.41
18323;BME280;9287;49.456;11.064;2023-06-10T07:42:20;97932.06;;;29.49;42.06
18323;BME280;9287;49.456;11.064;2023-06-10T07:44:47;97929.47;;;29.99;40.27
18323;BME280;9287;49.456;11.064;2023-06-10T07:47:15;97937.81;;;30.08;39.30
18323;BME280;9287;49.456;11.064;2023-06-10T07:49:44;97932.13;;;31.37;37.88
18323;BME280;9287;49.456;11.064;2023-06-10T07:52:12;97920.56;;;33.33;34.50
18323;BME280;9287;49.456;11.064;2023-06-10T07:54:40;97926.50;;;30.67;37.78
18323;BME280;9287;49.456;11.064;2023-06-10T07:57:08;97926.44;;;29.49;38.99
18323;BME280;9287;49.456;11.064;2023-06-10T07:59:36;97930.72;;;28.46;41.11
18323;BME280;9287;49.456;11.064;2023-06-10T08:02:04;97920.13;;;29.93;38.35
18323;BME280;9287;49.456;11.064;2023-06-10T08:04:32;97923.53;;;29.43;39.17
18323;BME280;9287;49.456;11.064;2023-06-10T08:07:03;97926.56;;;31.22;36.57
18323;BME280;9287;49.456;11.064;2023-06-10T08:09:31;97921.06;;;32.26;35.11
18323;BME280;9287;49.456;11.064;2023-06-10T08:11:59;97918.28;;;34.58;33.09
18323;BME280;9287;49.456;11.064;2023-06-10T08:14:27;97917.63;;;32.16;34.59
18323;BME280;9287;49.456;11.064;2023-06-10T08:16:55;97920.81;;;32.92;33.43
18323;BME280;9287;49.456;11.064;2023-06-10T08:19:23;97914.72;;;36.01;30.50
18323;BME280;9287;49.456;11.064;2023-06-10T08:21:50;97909.59;;;36.35;28.48
18323;BME280;9287;49.456;11.064;2023-06-10T08:24:20;97906.94;;;32.94;33.21
18323;BME280;9287;49.456;11.064;2023-06-10T08:26:47;97919.03;;;32.58;33.79
18323;BME280;9287;49.456;11.064;2023-06-10T08:29:15;97909.63;;;32.40;33.64
18323;BME280;9287;49.456;11.064;2023-06-10T08:31:44;97903.66;;;32.07;34.39
18323;BME280;9287;49.456;11.064;2023-06-10T08:34:11;97902.09;;;31.13;34.92
18323;BME280;9287;49.456;11.064;2023-06-10T08:36:39;97908.22;;;32.25;34.79
18323;BME280;9287;49.456;11.064;2023-06-10T08:39:07;97905.19;;;31.36;35.08
18323;BME280;9287;49.456;11.064;2023-06-10T08:41:40;97912.66;;;31.39;35.42
18323;BME280;9287;49.456;11.064;2023-06-10T08:44:15;97901.91;;;32.35;33.79
18323;BME280;9287;49.456;11.064;2023-06-10T08:46:45;97896.78;;;33.13;32.75
18323;BME280;9287;49.456;11.064;2023-06-10T08:49:17;97897.38;;;34.55;31.51
18323;BME280;9287;49.456;11.064;2023-06-10T08:51:50;97899.81;;;33.04;31.62
18323;BME280;9287;49.456;11.064;2023-06-10T08:54:21;97899.84;;;31.18;35.43
18323;BME280;9287;49.456;11.064;2023-06-10T08:56:51;97910.41;;;31.23;34.03
18323;BME280;9287;49.456;11.064;2023-06-10T08:59:21;97893.34;;;32.98;32.40
18323;BME280;9287;49.456;11.064;2023-06-10T09:01:50;97903.97;;;33.14;31.83
18323;BME280;9287;49.456;11.064;2023-06-10T09:04:18;97899.28;;;32.63;32.20
18323;BME280;9287;49.456;11.064;2023-06-10T09:06:49;97898.03;;;31.00;34.35
18323;BME280;9287;49.456;11.064;2023-06-10T09:09:17;97906.22;;;31.33;34.54
18323;BME280;9287;49.456;11.064;2023-06-10T09:11:46;97906.69;;;32.24;33.04
18323;BME280;9287;49.456;11.064;2023-06-10T09:14:15;97899.63;;;33.78;31.58
18323;BME280;9287;49.456;11.064;2023-06-10T09:16:43;97896.28;;;31.02;34.40
18323;BME280;9287;49.456;11.064;2023-06-10T09:19:13;97896.38;;;31.95;33.78
18323;BME280;9287;49.456;11.064;2023-06-10T09:21:45;97895.38;;;32.24;33.16
18323;BME280;9287;49.456;11.064;2023-06-10T09:24:13;97892.59;;;32.29;33.60
18323;BME280;9287;49.456;11.064;2023-06-10T09:26:42;97892.09;;;32.05;32.99
18323;BME280;9287;49.456;11.064;2023-06-10T09:29:10;97888.69;;;31.08;34.72
18323;BME280;9287;49.456;11.064;2023-06-10T09:31:40;97898.50;;;32.63;33.70
18323;BME280;9287;49.456;11.064;2023-06-10T09:34:09;97893.19;;;29.24;37.25
18323;BME280;9287;49.456;11.064;2023-06-10T09:36:37;97890.41;;;30.36;36.50
18323;BME280;9287;49.456;11.064;2023-06-10T09:39:13;97898.28;;;30.46;36.06
18323;BME280;9287;49.456;11.064;2023-06-10T09:41:43;97901.19;;;30.87;35.53
18323;BME280;9287;49.456;11.064;2023-06-10T09:44:12;97906.56;;;31.05;35.76
18323;BME280;9287;49.456;11.064;2023-06-10T09:46:42;97899.38;;;30.20;36.77
18323;BME280;9287;49.456;11.064;2023-06-10T09:49:10;97899.84;;;30.33;36.76
18323;BME280;9287;49.456;11.064;2023-06-10T09:51:38;97901.63;;;28.67;38.88
18323;BME280;9287;49.456;11.064;2023-06-10T09:54:16;97902.53;;;26.76;43.00
18323;BME280;9287;49.456;11.064;2023-06-10T09:56:46;97903.75;;;27.33;42.36
18323;BME280;9287;49.456;11.064;2023-06-10T09:59:15;97899.00;;;28.21;40.79
18323;BME280;9287;49.456;11.064;2023-06-10T10:01:54;97886.81;;;28.24;40.90
18323;BME280;9287;49.456;11.064;2023-06-10T10:04:23;97893.66;;;28.65;40.33
18323;BME280;9287;49.456;11.064;2023-06-10T10:06:51;97892.44;;;28.24;41.14
18323;BME280;9287;49.456;11.064;2023-06-10T10:09:19;97888.19;;;28.38;40.44
18323;BME280;9287;49.456;11.064;2023-06-10T10:11:48;97880.25;;;29.41;40.13
18323;BME280;9287;49.456;11.064;2023-06-10T10:14:18;97883.94;;;29.08;39.16
18323;BME280;9287;49.456;11.064;2023-06-10T10:16:49;97886.47;;;28.97;40.07
18323;BME280;9287;49.456;11.064;2023-06-10T10:19:20;97890.19;;;29.03;40.04
18323;BME280;9287;49.456;11.064;2023-06-10T10:21:53;97886.34;;;29.78;39.49
18323;BME280;9287;49.456;11.064;2023-06-10T10:24:26;97891.25;;;27.89;41.58
18323;BME280;9287;49.456;11.064;2023-06-10T10:26:58;97882.56;;;27.78;41.46
18323;BME280;9287;49.456;11.064;2023-06-10T10:29:31;97877.41;;;27.49;42.24
18323;BME280;9287;49.456;11.064;2023-06-10T10:32:03;97887.22;;;26.98;44.07
18323;BME280;9287;49.456;11.064;2023-06-10T10:34:37;97887.34;;;26.46;43.63
18323;BME280;9287;49.456;11.064;2023-06-10T10:37:10;97892.63;;;25.47;45.33
18323;BME280;9287;49.456;11.064;2023-06-10T10:39:38;97880.00;;;25.21;46.52
18323;BME280;9287;49.456;11.064;2023-06-10T10:42:07;97879.25;;;25.86;46.21
18323;BME280;9287;49.456;11.064;2023-06-10T10:44:37;97881.69;;;26.77;44.14
18323;BME280;9287;49.456;11.064;2023-06-10T10:47:08;97882.81;;;26.17;45.64
18323;BME280;9287;49.456;11.064;2023-06-10T10:49:37;97879.44;;;25.70;48.01
18323;BME280;9287;49.456;11.064;2023-06-10T10:52:11;97877.56;;;25.66;47.78
18323;BME280;9287;49.456;11.064;2023-06-10T10:54:43;97878.72;;;25.56;48.45
18323;BME280;9287;49.456;11.064;2023-06-10T10:57:16;97880.44;;;25.76;48.84
18323;BME280;9287;49.456;11.064;2023-06-10T10:59:58;97881.63;;;25.31;50.13
18323;BME280;9287;49.456;11.064;2023-06-10T11:02:39;97888.34;;;25.55;50.20
18323;BME280;9287;49.456;11.064;2023-06-10T11:05:11;97889.97;;;25.87;49.60
18323;BME280;9287;49.456;11.064;2023-06-10T11:07:40;97882.13;;;25.73;49.87
18323;BME280;9287;49.456;11.064;2023-06-10T11:10:09;97882.06;;;25.29;50.93
18323;BME280;9287;49.456;11.064;2023-06-10T11:12:52;97884.72;;;25.89;49.71
18323;BME280;9287;49.456;11.064;2023-06-10T11:15:22;97883.56;;;26.30;48.63
18323;BME280;9287;49.456;11.064;2023-06-10T11:18:22;97881.00;;;27.40;46.40
18323;BME280;9287;49.456;11.064;2023-06-10T11:20:56;97880.31;;;26.81;46.31
18323;BME280;9287;49.456;11.064;2023-06-10T11:23:40;97881.94;;;26.60;46.94
18323;BME280;9287;49.456;11.064;2023-06-10T11:26:16;97871.53;;;25.99;49.31
18323;BME280;9287;49.456;11.064;2023-06-10T11:29:04;97880.31;;;26.81;47.81
18323;BME280;9287;49.456;11.064;2023-06-10T11:31:40;97876.06;;;26.27;48.40
18323;BME280;9287;49.456;11.064;2023-06-10T11:34:12;97868.75;;;26.70;48.99
18323;BME280;9287;49.456;11.064;2023-06-10T11:36:41;97881.09;;;26.42;48.00
18323;BME280;9287;49.456;11.064;2023-06-10T11:39:13;97884.38;;;26.40;47.44
18323;BME280;9287;49.456;11.064;2023-06-10T11:41:46;97875.72;;;27.15;45.70
18323;BME280;9287;49.456;11.064;2023-06-10T11:44:16;97871.63;;;27.80;43.15
18323;BME280;9287;49.456;11.064;2023-06-10T11:46:48;97867.91;;;27.55;42.92
18323;BME280;9287;49.456;11.064;2023-06-10T11:49:20;97859.59;;;27.97;42.35
18323;BME280;9287;49.456;11.064;2023-06-10T11:51:50;97857.84;;;28.75;40.75
18323;BME280;9287;49.456;11.064;2023-06-10T11:54:19;97860.34;;;28.07;41.60
18323;BME280;9287;49.456;11.064;2023-06-10T11:56:49;97846.25;;;27.74;43.13
18323;BME280;9287;49.456;11.064;2023-06-10T11:59:27;97850.47;;;27.42;42.94
18323;BME280;9287;49.456;11.064;2023-06-10T12:01:56;97860.59;;;27.12;44.82
18323;BME280;9287;49.456;11.064;2023-06-10T12:04:26;97860.13;;;26.95;45.24
18323;BME280;9287;49.456;11.064;2023-06-10T12:06:55;97873.59;;;26.29;46.24
18323;BME280;9287;49.456;11.064;2023-06-10T12:09:25;97865.34;;;26.75;46.15
18323;BME280;9287;49.456;11.064;2023-06-10T12:11:59;97877.81;;;26.92;44.03
18323;BME280;9287;49.456;11.064;2023-06-10T12:14:55;97868.47;;;26.86;43.70
18323;BME280;9287;49.456;11.064;2023-06-10T12:17:36;97858.88;;;26.96;43.99
18323;BME280;9287;49.456;11.064;2023-06-10T12:20:27;97861.69;;;27.51;42.41
18323;BME280;9287;49.456;11.064;2023-06-10T12:23:00;97856.25;;;27.29;43.11
18323;BME280;9287;49.456;11.064;2023-06-10T12:25:30;97856.38;;;26.98;43.87
18323;BME280;9287;49.456;11.064;2023-06-10T12:27:59;97856.25;;;26.53;45.00
18323;BME280;9287;49.456;11.064;2023-06-10T12:30:27;97851.81;;;26.33;45.78
18323;BME280;9287;49.456;11.064;2023-06-10T12:32:59;97850.97;;;26.55;45.60
18323;BME280;9287;49.456;11.064;2023-06-10T12:35:31;97850.06;;;26.67;44.36
18323;BME280;9287;49.456;11.064;2023-06-10T12:38:00;97843.94;;;26.50;44.33
18323;BME280;9287;49.456;11.064;2023-06-10T12:40:31;97839.00;;;26.54;44.94
18323;BME280;9287;49.456;11.064;2023-06-10T12:43:00;97833.59;;;26.87;44.52
18323;BME280;9287;49.456;11.064;2023-06-10T12:45:31;97836.47;;;26.96;43.91
18323;BME280;9287;49.456;11.064;2023-06-10T12:48:06;97820.56;;;27.48;43.43
18323;BME280;9287;49.456;11.064;2023-06-10T12:50:40;97830.41;;;27.16;41.98
18323;BME280;9287;49.456;11.064;2023-06-10T12:53:09;97825.09;;;27.00;43.08
18323;BME280;9287;49.456;11.064;2023-06-10T12:55:38;97828.97;;;27.21;42.94
18323;BME280;9287;49.456;11.064;2023-06-10T12:58:06;97833.00;;;26.92;42.45
18323;BME280;9287;49.456;11.064;2023-06-10T13:00:34;97837.66;;;26.77;43.24
18323;BME280;9287;49.456;11.064;2023-06-10T13:03:02;97817.63;;;26.29;44.58
18323;BME280;9287;49.456;11.064;2023-06-10T13:05:33;97819.78;;;26.34;45.02
18323;BME280;9287;49.456;11.064;2023-06-10T13:08:03;97827.75;;;26.36;45.33
18323;BME280;9287;49.456;11.064;2023-06-10T13:10:31;97820.34;;;26.20;44.93